CYHE

Hope Airport

Hope, British Columbia, Canada
METAR CYHE 181400Z AUTO 08007KT 050V110 9SM CLR 15/11 A3024 RMK SLP242
Observed Flight Rules
Aug-18 @ 14:00 UTC (53 minutes ago) Visual Flight Rules
Wind Visibility Clouds
80° at 7 knots 9 miles
  • Clear skies
Temperatures Readings
Current 15°C / 59°F
Dewpoint 11°C / 52°F
Humidity 77%
Altimeter 30.24" Hg
Pressure 1024.2 hPa
Elevation 39
METAR CYHE 181400Z AUTO 08007KT 050V110 9SM CLR 15/11 A3024 RMK SLP242
Observed Flight Rules
Aug-18 @ 14:00 UTC
(53 minutes ago)
VFR
Wind Visibility
80° at 7 knots 9 miles
Clouds
  • Clear skies
Temperature Dewpoint
15°C / 59°F 11°C / 52°F
Humidity Altimeter Pressure
77% 30.24" Hg 1024.2 hPa